This is the latest recevied weather packets stored in our database for station/object KC3BBT-13. If no packets are shown the sender has not sent any weather packets the latest 1 day(s).
| Time | Temp. | Humidity | Pressure | Rain* | Wind** | Luminosity | Snow |
|---|---|---|---|---|---|---|---|
| 1778004346 | 28.33° C | 34% | 1011.5 hPa | 0 mm | 0 m/s | - | - |
| 1778003471 | 27.78° C | 33% | 1011.6 hPa | 0 mm | 3.58 m/s, 185° | - | - |
| 1778002721 | 28.33° C | 32% | 1011.7 hPa | 0 mm | 4.02 m/s, 304° | - | - |
| 1778001851 | 27.78° C | 33% | 1011.8 hPa | 0 mm | 1.34 m/s, 267° | - | - |
| 1778001101 | 27.78° C | 36% | 1011.9 hPa | 0 mm | 2.68 m/s, 110° | - | - |
| 1778000374 | 27.22° C | 38% | 1012.1 hPa | 0 mm | 0.89 m/s, 228° | - | - |
| 1778000271 | 27.22° C | 38% | 1012.1 hPa | 0 mm | 0.89 m/s, 228° | - | - |
| 1777999471 | 27.22° C | 38% | 1012.3 hPa | 0 mm | 1.34 m/s, 183° | - | - |
| 1777998676 | 26.67° C | 39% | 1012.5 hPa | 0 mm | 0 m/s | - | - |
| 1777998078 | 26.11° C | 40% | 1012.9 hPa | 0 mm | 0 m/s | - | - |
| 1777997923 | 26.11° C | 40% | 1012.9 hPa | 0 mm | 0 m/s | - | - |
| 1777997037 | 26.11° C | 42% | 1013 hPa | 0 mm | 0.45 m/s, 132° | - | - |
| 1777996266 | 25.56° C | 42% | 1013.2 hPa | 0 mm | 1.34 m/s, 144° | - | - |
| 1777995604 | 25° C | 44% | 1013.1 hPa | 0 mm | 0 m/s | - | - |
| 1777995511 | 25° C | 44% | 1013.1 hPa | 0 mm | 0 m/s | - | - |
| 1777994773 | 25° C | 45% | 1013.2 hPa | 0 mm | 0 m/s | - | - |
| 1777993906 | 23.89° C | 46% | 1013.1 hPa | 0 mm | 1.79 m/s, 139° | - | - |
| 1777993047 | 22.78° C | 47% | 1013.1 hPa | 0 mm | 0.89 m/s, 223° | - | - |
| 1777992241 | 22.22° C | 49% | 1013.2 hPa | 0 mm | 1.79 m/s, 185° | - | - |
| 1777991578 | 21.67° C | 49% | 1013.1 hPa | 0 mm | 0 m/s | - | - |
| 1777991421 | 21.67° C | 49% | 1013.1 hPa | 0 mm | 0 m/s | - | - |
| 1777990546 | 21.11° C | 51% | 1013.3 hPa | 0 mm | 0 m/s | - | - |
| 1777989773 | 20.56° C | 52% | 1013.3 hPa | 0 mm | 1.79 m/s, 209° | - | - |
| 1777988941 | 20° C | 53% | 1013.2 hPa | 0 mm | 1.79 m/s, 223° | - | - |
| 1777988121 | 20° C | 53% | 1013.3 hPa | 0 mm | 0 m/s | - | - |
* Rain latest hour (hover to see other rain measurements)
** Current wind speed in m/s (hover to see current wind gust speed)